Cavern City Air Terminal
KCNM : now visible

Airfield :











YOU CAN JOIN US ON...

 
LOGIN :

Register | Disclaimer

   EN    FR    IT 

 









Legend :    VFR   Marginal VFR   IFR   Intensive IFR   Very Intensive IFR
Visi :
Ceiling :
>= 8 km
>= 3000ft
5 to 8 km
1000 to 3000 ft
1500m to 5 km
500 to 1000 ft
800 to 1500m
200 to 500 ft
< 800m
< 200 ft
Symbols :   Thunderstorms  Fog  Heavy snow  Heavy precipitations  Wind > 20 kt






- Airport Elevation : 3295 ft
- IATA code : CNM


KCNM - Cavern City Air Terminal

CURRENT METAR :
  • 172153Z AUTO 25013G20KT 10SM CLR 26/M04 A2977 RMK AO2 SLP030 T02611044

EXPIRED METARs :
  • 172053Z AUTO VRB04KT 10SM CLR 25/M02 A2978 RMK AO2 SLP036 T02501022 56030
  • 171953Z AUTO 13008KT 10SM CLR 24/M03 A2981 RMK AO2 SLP046 T02391033

TAF KCNM
Valid from the 17 at 18:00 until the 18 at 18:00 UTC


171727Z 1718/1818 03006KT P6SM SCT250
FM172100 23010KT P6SM SCT250
FM180900 33008KT P6SM SCT250



MET'MAP, your aeronautical weather chart ! - Copyright ORBIFLY December 2007 - Disclaimer

ORBIFLY MET'MAP TEAM :

Programming & Development : Alexandra Zaïnal
Concept & original design : Baudouin d'Aumeries
Assistance for programming : Marc-Olivier Méhu
Technical & hardware support : Manuel Goepfert

Contact : metmap@orbifly.com




SOURCES & CREDITS :

   NOAA       Earth
Advisory